sensor_id;sensor_type;location;lat;lon;timestamp;P1;durP1;ratioP1;P2;durP2;ratioP2
62863;SDS011;48954;59.950;11.014;2023-04-25T00:01:45;0.00;;;0.00;;
62863;SDS011;48954;59.950;11.014;2023-04-25T00:04:11;0.10;;;0.00;;
62863;SDS011;48954;59.950;11.014;2023-04-25T00:06:37;0.10;;;0.10;;
62863;SDS011;48954;59.950;11.014;2023-04-25T00:09:03;0.20;;;0.10;;
62863;SDS011;48954;59.950;11.014;2023-04-25T00:11:30;0.00;;;0.00;;
62863;SDS011;48954;59.950;11.014;2023-04-25T00:13:56;0.10;;;0.00;;
62863;SDS011;48954;59.950;11.014;2023-04-25T00:16:22;0.10;;;0.00;;
62863;SDS011;48954;59.950;11.014;2023-04-25T00:18:47;0.00;;;0.00;;
62863;SDS011;48954;59.950;11.014;2023-04-25T00:21:13;0.00;;;0.00;;
62863;SDS011;48954;59.950;11.014;2023-04-25T00:23:39;0.10;;;0.00;;
62863;SDS011;48954;59.950;11.014;2023-04-25T00:26:05;0.90;;;0.10;;
62863;SDS011;48954;59.950;11.014;2023-04-25T00:28:30;0.10;;;0.00;;
62863;SDS011;48954;59.950;11.014;2023-04-25T00:30:56;0.10;;;0.10;;
62863;SDS011;48954;59.950;11.014;2023-04-25T00:33:22;0.60;;;0.10;;
62863;SDS011;48954;59.950;11.014;2023-04-25T00:35:48;0.10;;;0.00;;
62863;SDS011;48954;59.950;11.014;2023-04-25T00:38:13;0.00;;;0.00;;
62863;SDS011;48954;59.950;11.014;2023-04-25T00:40:39;0.10;;;0.00;;
62863;SDS011;48954;59.950;11.014;2023-04-25T00:43:05;0.20;;;0.00;;
62863;SDS011;48954;59.950;11.014;2023-04-25T00:45:31;0.00;;;0.00;;
62863;SDS011;48954;59.950;11.014;2023-04-25T00:47:56;0.00;;;0.00;;
62863;SDS011;48954;59.950;11.014;2023-04-25T00:50:23;0.00;;;0.00;;
62863;SDS011;48954;59.950;11.014;2023-04-25T00:52:49;0.00;;;0.00;;
62863;SDS011;48954;59.950;11.014;2023-04-25T00:55:16;0.20;;;0.00;;
62863;SDS011;48954;59.950;11.014;2023-04-25T00:57:42;0.20;;;0.10;;
62863;SDS011;48954;59.950;11.014;2023-04-25T01:00:08;0.00;;;0.00;;
62863;SDS011;48954;59.950;11.014;2023-04-25T01:02:35;0.00;;;0.00;;
62863;SDS011;48954;59.950;11.014;2023-04-25T01:05:03;0.10;;;0.00;;
62863;SDS011;48954;59.950;11.014;2023-04-25T01:07:29;0.00;;;0.00;;
62863;SDS011;48954;59.950;11.014;2023-04-25T01:09:54;0.40;;;0.20;;
62863;SDS011;48954;59.950;11.014;2023-04-25T01:12:20;0.50;;;0.10;;
62863;SDS011;48954;59.950;11.014;2023-04-25T01:14:46;0.20;;;0.10;;
62863;SDS011;48954;59.950;11.014;2023-04-25T01:17:12;0.40;;;0.20;;
62863;SDS011;48954;59.950;11.014;2023-04-25T01:19:38;0.20;;;0.00;;
62863;SDS011;48954;59.950;11.014;2023-04-25T01:22:04;0.00;;;0.00;;
62863;SDS011;48954;59.950;11.014;2023-04-25T01:24:31;0.10;;;0.00;;
62863;SDS011;48954;59.950;11.014;2023-04-25T01:26:58;0.00;;;0.00;;
62863;SDS011;48954;59.950;11.014;2023-04-25T01:29:25;0.00;;;0.00;;
62863;SDS011;48954;59.950;11.014;2023-04-25T01:31:52;0.10;;;0.00;;
62863;SDS011;48954;59.950;11.014;2023-04-25T01:34:19;0.00;;;0.00;;
62863;SDS011;48954;59.950;11.014;2023-04-25T01:36:45;0.00;;;0.00;;
62863;SDS011;48954;59.950;11.014;2023-04-25T01:39:14;0.00;;;0.00;;
62863;SDS011;48954;59.950;11.014;2023-04-25T01:41:41;0.00;;;0.00;;
62863;SDS011;48954;59.950;11.014;2023-04-25T01:44:07;0.00;;;0.00;;
62863;SDS011;48954;59.950;11.014;2023-04-25T01:46:33;0.00;;;0.00;;
62863;SDS011;48954;59.950;11.014;2023-04-25T01:48:59;0.00;;;0.00;;
62863;SDS011;48954;59.950;11.014;2023-04-25T01:51:25;0.10;;;0.00;;
62863;SDS011;48954;59.950;11.014;2023-04-25T01:53:51;0.00;;;0.00;;
62863;SDS011;48954;59.950;11.014;2023-04-25T01:56:18;0.00;;;0.00;;
62863;SDS011;48954;59.950;11.014;2023-04-25T01:58:44;0.00;;;0.00;;
62863;SDS011;48954;59.950;11.014;2023-04-25T02:01:10;0.00;;;0.00;;
62863;SDS011;48954;59.950;11.014;2023-04-25T02:03:36;0.60;;;0.00;;
62863;SDS011;48954;59.950;11.014;2023-04-25T02:06:02;0.00;;;0.00;;
62863;SDS011;48954;59.950;11.014;2023-04-25T02:08:27;0.00;;;0.00;;
62863;SDS011;48954;59.950;11.014;2023-04-25T02:10:53;0.00;;;0.00;;
62863;SDS011;48954;59.950;11.014;2023-04-25T02:13:19;0.00;;;0.00;;
62863;SDS011;48954;59.950;11.014;2023-04-25T02:15:48;0.00;;;0.00;;
62863;SDS011;48954;59.950;11.014;2023-04-25T02:18:14;0.00;;;0.00;;
62863;SDS011;48954;59.950;11.014;2023-04-25T02:20:39;0.00;;;0.00;;
62863;SDS011;48954;59.950;11.014;2023-04-25T02:23:05;0.00;;;0.00;;
62863;SDS011;48954;59.950;11.014;2023-04-25T02:25:31;0.00;;;0.00;;
62863;SDS011;48954;59.950;11.014;2023-04-25T02:27:57;0.10;;;0.00;;
62863;SDS011;48954;59.950;11.014;2023-04-25T02:30:22;0.20;;;0.00;;
62863;SDS011;48954;59.950;11.014;2023-04-25T02:32:48;0.00;;;0.00;;
62863;SDS011;48954;59.950;11.014;2023-04-25T02:35:14;0.10;;;0.00;;
62863;SDS011;48954;59.950;11.014;2023-04-25T02:37:40;0.00;;;0.00;;
62863;SDS011;48954;59.950;11.014;2023-04-25T02:40:08;0.00;;;0.00;;
62863;SDS011;48954;59.950;11.014;2023-04-25T02:42:35;0.00;;;0.00;;
62863;SDS011;48954;59.950;11.014;2023-04-25T02:45:01;0.00;;;0.00;;
62863;SDS011;48954;59.950;11.014;2023-04-25T02:47:28;0.00;;;0.00;;
62863;SDS011;48954;59.950;11.014;2023-04-25T02:49:53;0.00;;;0.00;;
62863;SDS011;48954;59.950;11.014;2023-04-25T02:52:19;0.10;;;0.00;;
62863;SDS011;48954;59.950;11.014;2023-04-25T02:54:45;0.00;;;0.00;;
62863;SDS011;48954;59.950;11.014;2023-04-25T02:57:11;0.00;;;0.00;;
62863;SDS011;48954;59.950;11.014;2023-04-25T02:59:36;0.20;;;0.00;;
62863;SDS011;48954;59.950;11.014;2023-04-25T03:02:02;0.00;;;0.00;;
62863;SDS011;48954;59.950;11.014;2023-04-25T03:04:28;0.10;;;0.00;;
62863;SDS011;48954;59.950;11.014;2023-04-25T03:06:54;0.10;;;0.00;;
62863;SDS011;48954;59.950;11.014;2023-04-25T03:09:19;0.20;;;0.00;;
62863;SDS011;48954;59.950;11.014;2023-04-25T03:11:45;0.10;;;0.10;;
62863;SDS011;48954;59.950;11.014;2023-04-25T03:14:12;0.10;;;0.10;;
62863;SDS011;48954;59.950;11.014;2023-04-25T03:16:38;0.10;;;0.10;;
62863;SDS011;48954;59.950;11.014;2023-04-25T03:19:04;0.20;;;0.10;;
62863;SDS011;48954;59.950;11.014;2023-04-25T03:21:31;0.10;;;0.10;;
62863;SDS011;48954;59.950;11.014;2023-04-25T03:23:58;0.20;;;0.00;;
62863;SDS011;48954;59.950;11.014;2023-04-25T03:26:24;0.10;;;0.10;;
62863;SDS011;48954;59.950;11.014;2023-04-25T03:28:50;0.00;;;0.00;;
62863;SDS011;48954;59.950;11.014;2023-04-25T03:31:16;0.10;;;0.00;;
62863;SDS011;48954;59.950;11.014;2023-04-25T03:33:42;0.50;;;0.20;;
62863;SDS011;48954;59.950;11.014;2023-04-25T03:36:08;0.10;;;0.10;;
62863;SDS011;48954;59.950;11.014;2023-04-25T03:38:34;0.80;;;0.10;;
62863;SDS011;48954;59.950;11.014;2023-04-25T03:41:00;0.10;;;0.00;;
62863;SDS011;48954;59.950;11.014;2023-04-25T03:43:26;0.10;;;0.10;;
62863;SDS011;48954;59.950;11.014;2023-04-25T03:45:52;0.20;;;0.10;;
62863;SDS011;48954;59.950;11.014;2023-04-25T03:48:18;0.10;;;0.00;;
62863;SDS011;48954;59.950;11.014;2023-04-25T03:50:44;0.00;;;0.00;;
62863;SDS011;48954;59.950;11.014;2023-04-25T03:53:09;0.30;;;0.10;;
62863;SDS011;48954;59.950;11.014;2023-04-25T03:55:35;0.40;;;0.10;;
62863;SDS011;48954;59.950;11.014;2023-04-25T03:58:01;0.30;;;0.10;;
62863;SDS011;48954;59.950;11.014;2023-04-25T04:00:27;0.40;;;0.00;;
62863;SDS011;48954;59.950;11.014;2023-04-25T04:02:52;0.30;;;0.10;;
62863;SDS011;48954;59.950;11.014;2023-04-25T04:05:18;0.00;;;0.00;;
62863;SDS011;48954;59.950;11.014;2023-04-25T04:07:44;0.30;;;0.10;;
62863;SDS011;48954;59.950;11.014;2023-04-25T04:10:10;0.20;;;0.00;;
62863;SDS011;48954;59.950;11.014;2023-04-25T04:12:36;0.00;;;0.00;;
62863;SDS011;48954;59.950;11.014;2023-04-25T04:15:03;0.00;;;0.00;;
62863;SDS011;48954;59.950;11.014;2023-04-25T04:17:30;0.10;;;0.10;;
62863;SDS011;48954;59.950;11.014;2023-04-25T04:19:56;0.20;;;0.10;;
62863;SDS011;48954;59.950;11.014;2023-04-25T04:22:22;0.50;;;0.10;;
62863;SDS011;48954;59.950;11.014;2023-04-25T04:24:48;0.00;;;0.00;;
62863;SDS011;48954;59.950;11.014;2023-04-25T04:27:14;0.30;;;0.10;;
62863;SDS011;48954;59.950;11.014;2023-04-25T04:29:40;0.00;;;0.00;;
62863;SDS011;48954;59.950;11.014;2023-04-25T04:32:06;0.00;;;0.00;;
62863;SDS011;48954;59.950;11.014;2023-04-25T04:34:32;0.50;;;0.20;;
62863;SDS011;48954;59.950;11.014;2023-04-25T04:36:57;0.40;;;0.20;;
62863;SDS011;48954;59.950;11.014;2023-04-25T04:39:23;0.50;;;0.30;;
62863;SDS011;48954;59.950;11.014;2023-04-25T04:41:49;0.20;;;0.10;;
62863;SDS011;48954;59.950;11.014;2023-04-25T04:44:14;0.10;;;0.00;;
62863;SDS011;48954;59.950;11.014;2023-04-25T04:46:40;0.90;;;0.30;;
62863;SDS011;48954;59.950;11.014;2023-04-25T04:49:06;0.20;;;0.20;;
62863;SDS011;48954;59.950;11.014;2023-04-25T04:51:32;1.00;;;0.40;;
62863;SDS011;48954;59.950;11.014;2023-04-25T04:53:58;0.20;;;0.10;;
62863;SDS011;48954;59.950;11.014;2023-04-25T04:56:24;0.10;;;0.10;;
62863;SDS011;48954;59.950;11.014;2023-04-25T04:58:50;0.40;;;0.20;;
62863;SDS011;48954;59.950;11.014;2023-04-25T05:01:16;0.60;;;0.30;;
62863;SDS011;48954;59.950;11.014;2023-04-25T05:03:42;1.20;;;0.40;;
62863;SDS011;48954;59.950;11.014;2023-04-25T05:06:08;0.70;;;0.30;;
62863;SDS011;48954;59.950;11.014;2023-04-25T05:08:33;0.40;;;0.20;;
62863;SDS011;48954;59.950;11.014;2023-04-25T05:10:59;0.30;;;0.20;;
62863;SDS011;48954;59.950;11.014;2023-04-25T05:13:25;0.50;;;0.20;;
62863;SDS011;48954;59.950;11.014;2023-04-25T05:15:51;0.00;;;0.00;;
62863;SDS011;48954;59.950;11.014;2023-04-25T05:18:17;0.20;;;0.10;;
62863;SDS011;48954;59.950;11.014;2023-04-25T05:20:42;0.40;;;0.10;;
62863;SDS011;48954;59.950;11.014;2023-04-25T05:23:12;0.40;;;0.20;;
62863;SDS011;48954;59.950;11.014;2023-04-25T05:25:39;0.20;;;0.10;;
62863;SDS011;48954;59.950;11.014;2023-04-25T05:28:05;0.30;;;0.10;;
62863;SDS011;48954;59.950;11.014;2023-04-25T05:30:34;0.50;;;0.10;;
62863;SDS011;48954;59.950;11.014;2023-04-25T05:33:03;0.30;;;0.10;;
62863;SDS011;48954;59.950;11.014;2023-04-25T05:35:29;0.40;;;0.20;;
62863;SDS011;48954;59.950;11.014;2023-04-25T05:37:58;0.90;;;0.20;;
62863;SDS011;48954;59.950;11.014;2023-04-25T05:40:24;0.30;;;0.20;;
62863;SDS011;48954;59.950;11.014;2023-04-25T05:42:50;0.20;;;0.10;;
62863;SDS011;48954;59.950;11.014;2023-04-25T05:45:20;0.50;;;0.20;;
62863;SDS011;48954;59.950;11.014;2023-04-25T05:47:46;0.70;;;0.20;;
62863;SDS011;48954;59.950;11.014;2023-04-25T05:50:12;0.50;;;0.20;;
62863;SDS011;48954;59.950;11.014;2023-04-25T05:52:37;0.40;;;0.20;;
62863;SDS011;48954;59.950;11.014;2023-04-25T05:55:03;0.50;;;0.20;;
62863;SDS011;48954;59.950;11.014;2023-04-25T05:57:30;0.10;;;0.10;;
62863;SDS011;48954;59.950;11.014;2023-04-25T05:59:56;0.60;;;0.30;;
62863;SDS011;48954;59.950;11.014;2023-04-25T06:02:23;0.60;;;0.10;;
62863;SDS011;48954;59.950;11.014;2023-04-25T06:04:50;0.50;;;0.20;;
62863;SDS011;48954;59.950;11.014;2023-04-25T06:07:16;1.60;;;0.70;;
62863;SDS011;48954;59.950;11.014;2023-04-25T06:09:43;3.10;;;0.40;;
62863;SDS011;48954;59.950;11.014;2023-04-25T06:12:09;1.10;;;0.30;;
62863;SDS011;48954;59.950;11.014;2023-04-25T06:14:34;0.80;;;0.40;;
62863;SDS011;48954;59.950;11.014;2023-04-25T06:17:00;0.30;;;0.20;;
62863;SDS011;48954;59.950;11.014;2023-04-25T06:19:26;1.50;;;0.40;;
62863;SDS011;48954;59.950;11.014;2023-04-25T06:21:52;0.90;;;0.20;;
62863;SDS011;48954;59.950;11.014;2023-04-25T06:24:18;0.50;;;0.20;;
62863;SDS011;48954;59.950;11.014;2023-04-25T06:26:43;0.30;;;0.20;;
62863;SDS011;48954;59.950;11.014;2023-04-25T06:29:09;0.70;;;0.40;;
62863;SDS011;48954;59.950;11.014;2023-04-25T06:31:35;0.80;;;0.20;;
62863;SDS011;48954;59.950;11.014;2023-04-25T06:34:01;0.30;;;0.30;;
62863;SDS011;48954;59.950;11.014;2023-04-25T06:36:27;0.40;;;0.30;;
62863;SDS011;48954;59.950;11.014;2023-04-25T06:38:53;0.30;;;0.20;;
62863;SDS011;48954;59.950;11.014;2023-04-25T06:41:19;0.70;;;0.40;;
62863;SDS011;48954;59.950;11.014;2023-04-25T06:43:45;0.90;;;0.40;;
62863;SDS011;48954;59.950;11.014;2023-04-25T06:46:11;0.60;;;0.30;;
62863;SDS011;48954;59.950;11.014;2023-04-25T06:48:37;1.10;;;0.30;;
62863;SDS011;48954;59.950;11.014;2023-04-25T06:51:03;0.60;;;0.40;;
62863;SDS011;48954;59.950;11.014;2023-04-25T06:53:29;0.30;;;0.20;;
62863;SDS011;48954;59.950;11.014;2023-04-25T06:55:55;0.60;;;0.30;;
62863;SDS011;48954;59.950;11.014;2023-04-25T06:58:21;0.40;;;0.30;;
62863;SDS011;48954;59.950;11.014;2023-04-25T07:00:47;1.80;;;0.80;;
62863;SDS011;48954;59.950;11.014;2023-04-25T07:03:13;1.20;;;0.50;;
62863;SDS011;48954;59.950;11.014;2023-04-25T07:05:39;1.20;;;0.50;;
62863;SDS011;48954;59.950;11.014;2023-04-25T07:08:04;1.00;;;0.60;;
62863;SDS011;48954;59.950;11.014;2023-04-25T07:10:30;0.70;;;0.30;;
62863;SDS011;48954;59.950;11.014;2023-04-25T07:12:56;0.80;;;0.50;;
62863;SDS011;48954;59.950;11.014;2023-04-25T07:15:22;1.20;;;0.60;;
62863;SDS011;48954;59.950;11.014;2023-04-25T07:17:48;0.50;;;0.30;;
62863;SDS011;48954;59.950;11.014;2023-04-25T07:20:14;0.90;;;0.50;;
62863;SDS011;48954;59.950;11.014;2023-04-25T07:22:39;0.70;;;0.40;;
62863;SDS011;48954;59.950;11.014;2023-04-25T07:25:05;1.00;;;0.40;;
62863;SDS011;48954;59.950;11.014;2023-04-25T07:27:31;0.80;;;0.40;;
62863;SDS011;48954;59.950;11.014;2023-04-25T07:30:00;2.00;;;0.50;;
62863;SDS011;48954;59.950;11.014;2023-04-25T07:32:27;1.00;;;0.50;;
62863;SDS011;48954;59.950;11.014;2023-04-25T07:34:52;0.70;;;0.40;;
62863;SDS011;48954;59.950;11.014;2023-04-25T07:37:19;0.70;;;0.40;;
62863;SDS011;48954;59.950;11.014;2023-04-25T07:39:45;0.70;;;0.40;;
62863;SDS011;48954;59.950;11.014;2023-04-25T07:42:11;0.40;;;0.20;;
62863;SDS011;48954;59.950;11.014;2023-04-25T07:44:40;0.60;;;0.40;;
62863;SDS011;48954;59.950;11.014;2023-04-25T07:47:06;0.70;;;0.40;;
62863;SDS011;48954;59.950;11.014;2023-04-25T07:49:33;0.70;;;0.30;;
62863;SDS011;48954;59.950;11.014;2023-04-25T07:51:59;0.50;;;0.30;;
62863;SDS011;48954;59.950;11.014;2023-04-25T07:54:25;0.60;;;0.30;;
62863;SDS011;48954;59.950;11.014;2023-04-25T07:56:52;0.80;;;0.40;;
62863;SDS011;48954;59.950;11.014;2023-04-25T07:59:19;1.80;;;0.70;;
62863;SDS011;48954;59.950;11.014;2023-04-25T08:01:47;1.00;;;0.30;;
62863;SDS011;48954;59.950;11.014;2023-04-25T08:04:13;0.80;;;0.40;;
62863;SDS011;48954;59.950;11.014;2023-04-25T08:06:39;1.10;;;0.40;;
62863;SDS011;48954;59.950;11.014;2023-04-25T08:09:06;1.10;;;0.50;;
62863;SDS011;48954;59.950;11.014;2023-04-25T08:11:32;0.80;;;0.40;;
62863;SDS011;48954;59.950;11.014;2023-04-25T08:13:58;0.90;;;0.50;;
62863;SDS011;48954;59.950;11.014;2023-04-25T08:16:24;0.80;;;0.50;;
62863;SDS011;48954;59.950;11.014;2023-04-25T08:18:50;0.80;;;0.50;;
62863;SDS011;48954;59.950;11.014;2023-04-25T08:21:26;0.70;;;0.50;;
62863;SDS011;48954;59.950;11.014;2023-04-25T08:23:52;1.00;;;0.40;;
62863;SDS011;48954;59.950;11.014;2023-04-25T08:26:18;0.90;;;0.40;;
62863;SDS011;48954;59.950;11.014;2023-04-25T08:28:45;0.70;;;0.50;;
62863;SDS011;48954;59.950;11.014;2023-04-25T08:31:11;0.90;;;0.30;;
62863;SDS011;48954;59.950;11.014;2023-04-25T08:33:38;0.30;;;0.20;;
62863;SDS011;48954;59.950;11.014;2023-04-25T08:36:04;1.00;;;0.50;;
62863;SDS011;48954;59.950;11.014;2023-04-25T08:38:30;0.70;;;0.40;;
62863;SDS011;48954;59.950;11.014;2023-04-25T08:40:56;1.40;;;0.60;;
62863;SDS011;48954;59.950;11.014;2023-04-25T08:43:26;1.90;;;0.80;;
62863;SDS011;48954;59.950;11.014;2023-04-25T08:45:54;3.70;;;1.20;;
62863;SDS011;48954;59.950;11.014;2023-04-25T08:48:27;2.70;;;1.30;;
62863;SDS011;48954;59.950;11.014;2023-04-25T08:50:55;2.00;;;0.90;;
62863;SDS011;48954;59.950;11.014;2023-04-25T08:53:26;1.20;;;0.50;;
62863;SDS011;48954;59.950;11.014;2023-04-25T08:55:59;1.70;;;0.80;;
62863;SDS011;48954;59.950;11.014;2023-04-25T08:58:29;1.20;;;0.70;;
62863;SDS011;48954;59.950;11.014;2023-04-25T09:00:56;1.80;;;0.80;;
62863;SDS011;48954;59.950;11.014;2023-04-25T09:03:21;0.60;;;0.40;;
62863;SDS011;48954;59.950;11.014;2023-04-25T09:05:47;1.60;;;0.80;;
62863;SDS011;48954;59.950;11.014;2023-04-25T09:08:15;1.50;;;0.50;;
62863;SDS011;48954;59.950;11.014;2023-04-25T09:10:41;1.30;;;0.60;;
62863;SDS011;48954;59.950;11.014;2023-04-25T09:13:08;1.00;;;0.50;;
62863;SDS011;48954;59.950;11.014;2023-04-25T09:15:57;1.40;;;0.80;;
62863;SDS011;48954;59.950;11.014;2023-04-25T09:18:24;1.60;;;0.80;;
62863;SDS011;48954;59.950;11.014;2023-04-25T09:21:10;0.80;;;0.50;;
62863;SDS011;48954;59.950;11.014;2023-04-25T09:23:41;1.60;;;0.60;;
62863;SDS011;48954;59.950;11.014;2023-04-25T09:26:09;0.70;;;0.50;;
62863;SDS011;48954;59.950;11.014;2023-04-25T09:28:35;1.30;;;0.80;;
62863;SDS011;48954;59.950;11.014;2023-04-25T09:31:01;1.80;;;0.90;;
62863;SDS011;48954;59.950;11.014;2023-04-25T09:33:32;2.00;;;0.80;;
62863;SDS011;48954;59.950;11.014;2023-04-25T09:36:03;1.60;;;0.70;;
62863;SDS011;48954;59.950;11.014;2023-04-25T09:38:43;0.90;;;0.60;;
62863;SDS011;48954;59.950;11.014;2023-04-25T09:41:11;2.30;;;1.00;;
62863;SDS011;48954;59.950;11.014;2023-04-25T09:43:38;0.70;;;0.50;;
62863;SDS011;48954;59.950;11.014;2023-04-25T09:46:09;1.60;;;0.70;;
62863;SDS011;48954;59.950;11.014;2023-04-25T09:48:35;1.40;;;0.70;;
62863;SDS011;48954;59.950;11.014;2023-04-25T09:51:11;1.30;;;0.70;;
62863;SDS011;48954;59.950;11.014;2023-04-25T09:53:43;1.80;;;1.10;;
62863;SDS011;48954;59.950;11.014;2023-04-25T09:56:11;1.30;;;0.70;;
62863;SDS011;48954;59.950;11.014;2023-04-25T09:58:38;2.30;;;1.10;;
62863;SDS011;48954;59.950;11.014;2023-04-25T10:01:06;2.60;;;0.80;;
62863;SDS011;48954;59.950;11.014;2023-04-25T10:03:36;1.80;;;0.80;;
62863;SDS011;48954;59.950;11.014;2023-04-25T10:06:07;1.30;;;0.70;;
62863;SDS011;48954;59.950;11.014;2023-04-25T10:08:36;1.70;;;0.80;;
62863;SDS011;48954;59.950;11.014;2023-04-25T10:11:03;1.20;;;0.80;;
62863;SDS011;48954;59.950;11.014;2023-04-25T10:13:31;1.30;;;0.70;;
62863;SDS011;48954;59.950;11.014;2023-04-25T10:15:58;2.10;;;0.50;;
62863;SDS011;48954;59.950;11.014;2023-04-25T10:18:27;0.80;;;0.50;;
62863;SDS011;48954;59.950;11.014;2023-04-25T10:20:54;2.00;;;1.00;;
62863;SDS011;48954;59.950;11.014;2023-04-25T10:23:22;1.90;;;0.70;;
62863;SDS011;48954;59.950;11.014;2023-04-25T10:25:50;1.70;;;0.90;;
62863;SDS011;48954;59.950;11.014;2023-04-25T10:28:17;2.00;;;0.90;;
62863;SDS011;48954;59.950;11.014;2023-04-25T10:30:56;1.60;;;0.70;;
62863;SDS011;48954;59.950;11.014;2023-04-25T10:34:00;1.80;;;1.10;;
62863;SDS011;48954;59.950;11.014;2023-04-25T10:36:27;3.10;;;1.30;;
62863;SDS011;48954;59.950;11.014;2023-04-25T10:38:58;2.60;;;0.80;;
62863;SDS011;48954;59.950;11.014;2023-04-25T10:41:31;3.60;;;1.30;;
62863;SDS011;48954;59.950;11.014;2023-04-25T10:44:00;2.10;;;1.10;;
62863;SDS011;48954;59.950;11.014;2023-04-25T10:46:27;2.90;;;1.40;;
62863;SDS011;48954;59.950;11.014;2023-04-25T10:48:58;1.30;;;0.70;;
62863;SDS011;48954;59.950;11.014;2023-04-25T10:51:33;2.00;;;1.10;;
62863;SDS011;48954;59.950;11.014;2023-04-25T10:54:01;2.50;;;1.20;;
62863;SDS011;48954;59.950;11.014;2023-04-25T10:56:39;1.90;;;0.90;;
62863;SDS011;48954;59.950;11.014;2023-04-25T10:59:15;1.80;;;0.90;;
62863;SDS011;48954;59.950;11.014;2023-04-25T11:01:43;1.20;;;0.60;;
62863;SDS011;48954;59.950;11.014;2023-04-25T11:04:20;1.40;;;0.70;;
62863;SDS011;48954;59.950;11.014;2023-04-25T11:09:44;2.10;;;0.90;;
62863;SDS011;48954;59.950;11.014;2023-04-25T11:12:11;1.30;;;0.70;;
62863;SDS011;48954;59.950;11.014;2023-04-25T11:14:38;1.70;;;0.70;;
62863;SDS011;48954;59.950;11.014;2023-04-25T11:17:07;1.50;;;0.80;;
62863;SDS011;48954;59.950;11.014;2023-04-25T11:19:34;2.70;;;1.10;;
62863;SDS011;48954;59.950;11.014;2023-04-25T11:22:00;2.10;;;1.10;;
62863;SDS011;48954;59.950;11.014;2023-04-25T11:27:00;2.30;;;1.00;;
62863;SDS011;48954;59.950;11.014;2023-04-25T11:29:28;1.90;;;1.00;;
62863;SDS011;48954;59.950;11.014;2023-04-25T11:31:56;1.20;;;0.70;;
62863;SDS011;48954;59.950;11.014;2023-04-25T11:34:24;1.90;;;1.00;;
62863;SDS011;48954;59.950;11.014;2023-04-25T11:36:51;2.20;;;1.00;;
62863;SDS011;48954;59.950;11.014;2023-04-25T11:39:17;2.20;;;1.00;;
62863;SDS011;48954;59.950;11.014;2023-04-25T11:41:44;1.70;;;0.80;;
62863;SDS011;48954;59.950;11.014;2023-04-25T11:44:11;1.50;;;0.70;;
62863;SDS011;48954;59.950;11.014;2023-04-25T11:46:40;2.30;;;1.00;;
62863;SDS011;48954;59.950;11.014;2023-04-25T11:49:07;1.80;;;1.00;;
62863;SDS011;48954;59.950;11.014;2023-04-25T11:51:40;1.00;;;0.60;;
62863;SDS011;48954;59.950;11.014;2023-04-25T11:54:07;1.70;;;1.00;;
62863;SDS011;48954;59.950;11.014;2023-04-25T11:56:33;1.60;;;0.70;;
62863;SDS011;48954;59.950;11.014;2023-04-25T11:59:00;1.90;;;1.00;;
62863;SDS011;48954;59.950;11.014;2023-04-25T12:01:28;1.80;;;0.90;;
62863;SDS011;48954;59.950;11.014;2023-04-25T12:03:57;1.20;;;0.70;;
62863;SDS011;48954;59.950;11.014;2023-04-25T12:06:26;1.20;;;0.50;;
62863;SDS011;48954;59.950;11.014;2023-04-25T12:09:03;1.90;;;0.80;;
62863;SDS011;48954;59.950;11.014;2023-04-25T12:11:30;1.80;;;0.90;;
62863;SDS011;48954;59.950;11.014;2023-04-25T12:14:01;1.40;;;0.70;;
62863;SDS011;48954;59.950;11.014;2023-04-25T12:16:27;2.50;;;1.00;;
62863;SDS011;48954;59.950;11.014;2023-04-25T12:18:53;2.30;;;1.10;;
62863;SDS011;48954;59.950;11.014;2023-04-25T12:21:21;1.70;;;0.90;;
62863;SDS011;48954;59.950;11.014;2023-04-25T12:23:47;2.30;;;1.10;;
62863;SDS011;48954;59.950;11.014;2023-04-25T12:26:13;2.00;;;1.00;;
62863;SDS011;48954;59.950;11.014;2023-04-25T12:28:39;2.60;;;1.10;;
62863;SDS011;48954;59.950;11.014;2023-04-25T12:31:05;2.20;;;1.10;;
62863;SDS011;48954;59.950;11.014;2023-04-25T12:33:33;2.10;;;1.00;;
62863;SDS011;48954;59.950;11.014;2023-04-25T12:36:02;1.90;;;1.00;;
62863;SDS011;48954;59.950;11.014;2023-04-25T12:38:30;2.30;;;1.10;;
62863;SDS011;48954;59.950;11.014;2023-04-25T12:40:57;2.30;;;1.00;;
62863;SDS011;48954;59.950;11.014;2023-04-25T12:43:23;1.20;;;0.80;;
62863;SDS011;48954;59.950;11.014;2023-04-25T12:45:52;1.80;;;1.00;;
62863;SDS011;48954;59.950;11.014;2023-04-25T12:48:19;1.90;;;0.90;;
62863;SDS011;48954;59.950;11.014;2023-04-25T12:50:46;1.50;;;0.70;;
62863;SDS011;48954;59.950;11.014;2023-04-25T12:53:12;1.70;;;0.80;;
62863;SDS011;48954;59.950;11.014;2023-04-25T12:55:38;1.70;;;1.00;;
62863;SDS011;48954;59.950;11.014;2023-04-25T12:58:04;1.40;;;0.90;;
62863;SDS011;48954;59.950;11.014;2023-04-25T13:00:30;1.80;;;0.90;;
62863;SDS011;48954;59.950;11.014;2023-04-25T13:02:56;1.30;;;0.70;;
62863;SDS011;48954;59.950;11.014;2023-04-25T13:05:22;1.40;;;0.90;;
62863;SDS011;48954;59.950;11.014;2023-04-25T13:07:48;1.10;;;0.60;;
62863;SDS011;48954;59.950;11.014;2023-04-25T13:10:14;1.70;;;0.80;;
62863;SDS011;48954;59.950;11.014;2023-04-25T13:12:40;2.10;;;0.80;;
62863;SDS011;48954;59.950;11.014;2023-04-25T13:15:06;1.10;;;0.60;;
62863;SDS011;48954;59.950;11.014;2023-04-25T13:17:33;1.50;;;0.90;;
62863;SDS011;48954;59.950;11.014;2023-04-25T13:19:59;1.40;;;0.80;;
62863;SDS011;48954;59.950;11.014;2023-04-25T13:22:25;2.80;;;1.30;;
62863;SDS011;48954;59.950;11.014;2023-04-25T13:24:51;1.50;;;0.80;;
62863;SDS011;48954;59.950;11.014;2023-04-25T13:27:17;2.60;;;1.50;;
62863;SDS011;48954;59.950;11.014;2023-04-25T13:29:43;2.20;;;1.30;;
62863;SDS011;48954;59.950;11.014;2023-04-25T13:32:09;1.60;;;0.90;;
62863;SDS011;48954;59.950;11.014;2023-04-25T13:34:35;1.80;;;1.00;;
62863;SDS011;48954;59.950;11.014;2023-04-25T13:37:02;1.90;;;1.00;;
62863;SDS011;48954;59.950;11.014;2023-04-25T13:39:29;2.20;;;1.00;;
62863;SDS011;48954;59.950;11.014;2023-04-25T13:42:02;1.80;;;1.10;;
62863;SDS011;48954;59.950;11.014;2023-04-25T13:44:28;2.90;;;1.30;;
62863;SDS011;48954;59.950;11.014;2023-04-25T13:46:54;3.20;;;1.70;;
62863;SDS011;48954;59.950;11.014;2023-04-25T13:49:20;2.30;;;1.20;;
62863;SDS011;48954;59.950;11.014;2023-04-25T13:51:47;2.60;;;1.20;;
62863;SDS011;48954;59.950;11.014;2023-04-25T13:54:13;1.80;;;1.00;;
62863;SDS011;48954;59.950;11.014;2023-04-25T13:56:40;1.90;;;1.10;;
62863;SDS011;48954;59.950;11.014;2023-04-25T13:59:06;2.20;;;1.20;;
62863;SDS011;48954;59.950;11.014;2023-04-25T14:01:32;1.80;;;0.90;;
62863;SDS011;48954;59.950;11.014;2023-04-25T14:03:58;1.90;;;1.10;;
62863;SDS011;48954;59.950;11.014;2023-04-25T14:06:23;1.60;;;0.90;;
62863;SDS011;48954;59.950;11.014;2023-04-25T14:08:51;2.10;;;1.00;;
62863;SDS011;48954;59.950;11.014;2023-04-25T14:11:17;3.30;;;1.60;;
62863;SDS011;48954;59.950;11.014;2023-04-25T14:13:42;2.30;;;1.20;;
62863;SDS011;48954;59.950;11.014;2023-04-25T14:16:08;2.90;;;1.20;;
62863;SDS011;48954;59.950;11.014;2023-04-25T14:18:34;1.60;;;1.00;;
62863;SDS011;48954;59.950;11.014;2023-04-25T14:21:00;1.70;;;1.00;;
62863;SDS011;48954;59.950;11.014;2023-04-25T14:23:26;2.00;;;1.00;;
62863;SDS011;48954;59.950;11.014;2023-04-25T14:25:51;1.50;;;0.90;;
62863;SDS011;48954;59.950;11.014;2023-04-25T14:28:17;1.80;;;0.90;;
62863;SDS011;48954;59.950;11.014;2023-04-25T14:30:43;3.10;;;1.40;;
62863;SDS011;48954;59.950;11.014;2023-04-25T14:33:09;1.50;;;0.80;;
62863;SDS011;48954;59.950;11.014;2023-04-25T14:35:35;1.40;;;0.80;;
62863;SDS011;48954;59.950;11.014;2023-04-25T14:38:00;2.30;;;1.50;;